Other Surface Observations
Issued by NWS Missoula, MT

Home | Current Version | Previous Version | Text Only | Print | Product List | Glossary On
Versions: 1 2 3 4 5 6 7 8 9 10 11 12 13 14 15 16 17 18 19 20 21 22 23 24 25 26 27 28 29 30 31 32 33 34 35 36 37 38 39 40 41 42 43 44 45 46 47 48 49 50
000
SXUS55 KMSO 300004
OSOMSO
MONTANA AWOS SUMMARY
NATIONAL WEATHER SERVICE MISSOULA MT
503 PM MST SUN MAR 29 2015

Montana AWOS Reports

ROUNDUP     |KRPX 292355Z AUTO 23017G25KT 40SM 17/M07 A2992 RMK AO1 T01721066
MALTA       |KM75 292355Z AUTO 22013G17KT 40SM 18/M01 A2989 RMK AO1 T01781010
EKALAKA     |K97M 292355Z AUTO 26010KT 40SM 13/M05 A3002 RMK AO1 T01281049
TWIN BRIDGES|K7S1 292355Z AUTO 24007KT 40SM 17/M07 A3009 RMK AO1 T01671066
SCOBEY      |K9S2 292355Z AUTO 25016G23KT 40SM 14/M01 A2990 RMK AO1 T01441010
LAUREL      |K6S8 292355Z AUTO 21010KT 40SM 18/M04 A3001 RMK AO1 T01831043




USA.gov is the U.S. government's official web portal to all federal, state and local government web resources and services.